sensor_id;sensor_type;location;lat;lon;timestamp;temperature;humidity
10304;DHT22;5197;48.152;8.590;2023-03-17T00:01:50;4.70;1.00
10304;DHT22;5197;48.152;8.590;2023-03-17T00:04:22;4.70;1.00
10304;DHT22;5197;48.152;8.590;2023-03-17T00:06:50;4.60;1.00
10304;DHT22;5197;48.152;8.590;2023-03-17T00:09:18;4.50;1.00
10304;DHT22;5197;48.152;8.590;2023-03-17T00:11:46;4.50;1.00
10304;DHT22;5197;48.152;8.590;2023-03-17T00:14:13;4.40;1.00
10304;DHT22;5197;48.152;8.590;2023-03-17T00:16:41;4.40;1.00
10304;DHT22;5197;48.152;8.590;2023-03-17T00:19:25;4.40;1.00
10304;DHT22;5197;48.152;8.590;2023-03-17T00:21:53;4.40;1.00
10304;DHT22;5197;48.152;8.590;2023-03-17T00:24:21;4.30;1.00
10304;DHT22;5197;48.152;8.590;2023-03-17T00:26:48;4.30;1.00
10304;DHT22;5197;48.152;8.590;2023-03-17T00:29:15;4.30;1.00
10304;DHT22;5197;48.152;8.590;2023-03-17T00:31:43;4.20;1.00
10304;DHT22;5197;48.152;8.590;2023-03-17T00:34:15;4.20;1.00
10304;DHT22;5197;48.152;8.590;2023-03-17T00:36:45;4.20;1.00
10304;DHT22;5197;48.152;8.590;2023-03-17T00:39:14;4.10;1.00
10304;DHT22;5197;48.152;8.590;2023-03-17T00:41:41;4.10;1.00
10304;DHT22;5197;48.152;8.590;2023-03-17T00:44:08;4.10;1.00
10304;DHT22;5197;48.152;8.590;2023-03-17T00:46:35;4.10;1.00
10304;DHT22;5197;48.152;8.590;2023-03-17T00:49:19;4.10;1.00
10304;DHT22;5197;48.152;8.590;2023-03-17T00:51:48;4.10;1.00
10304;DHT22;5197;48.152;8.590;2023-03-17T00:54:16;4.00;1.00
10304;DHT22;5197;48.152;8.590;2023-03-17T00:56:44;4.00;1.00
10304;DHT22;5197;48.152;8.590;2023-03-17T00:59:27;4.00;1.00
10304;DHT22;5197;48.152;8.590;2023-03-17T01:01:55;3.90;1.00
10304;DHT22;5197;48.152;8.590;2023-03-17T01:04:23;3.80;1.00
10304;DHT22;5197;48.152;8.590;2023-03-17T01:06:49;3.80;1.00
10304;DHT22;5197;48.152;8.590;2023-03-17T01:09:18;3.80;1.00
10304;DHT22;5197;48.152;8.590;2023-03-17T01:11:46;3.80;1.00
10304;DHT22;5197;48.152;8.590;2023-03-17T01:14:14;3.80;1.00
10304;DHT22;5197;48.152;8.590;2023-03-17T01:16:41;3.80;1.00
10304;DHT22;5197;48.152;8.590;2023-03-17T01:19:10;3.90;1.00
10304;DHT22;5197;48.152;8.590;2023-03-17T01:21:37;3.90;1.00
10304;DHT22;5197;48.152;8.590;2023-03-17T01:24:04;3.90;1.00
10304;DHT22;5197;48.152;8.590;2023-03-17T01:26:31;3.90;1.00
10304;DHT22;5197;48.152;8.590;2023-03-17T01:28:59;3.90;1.00
10304;DHT22;5197;48.152;8.590;2023-03-17T01:31:25;3.90;1.00
10304;DHT22;5197;48.152;8.590;2023-03-17T01:33:52;3.90;1.00
10304;DHT22;5197;48.152;8.590;2023-03-17T01:36:19;4.00;1.00
10304;DHT22;5197;48.152;8.590;2023-03-17T01:38:46;4.00;1.00
10304;DHT22;5197;48.152;8.590;2023-03-17T01:41:17;4.00;1.00
10304;DHT22;5197;48.152;8.590;2023-03-17T01:43:44;4.00;1.00
10304;DHT22;5197;48.152;8.590;2023-03-17T01:57:18;3.90;1.00
10304;DHT22;5197;48.152;8.590;2023-03-17T01:59:52;3.90;1.00
10304;DHT22;5197;48.152;8.590;2023-03-17T02:02:26;3.80;1.00
10304;DHT22;5197;48.152;8.590;2023-03-17T02:04:55;3.80;1.00
10304;DHT22;5197;48.152;8.590;2023-03-17T02:07:23;3.70;1.00
10304;DHT22;5197;48.152;8.590;2023-03-17T02:09:53;3.70;1.00
10304;DHT22;5197;48.152;8.590;2023-03-17T02:12:21;3.70;1.00
10304;DHT22;5197;48.152;8.590;2023-03-17T02:14:51;3.70;1.00
10304;DHT22;5197;48.152;8.590;2023-03-17T02:17:23;3.70;1.00
10304;DHT22;5197;48.152;8.590;2023-03-17T02:19:51;3.70;1.00
10304;DHT22;5197;48.152;8.590;2023-03-17T02:22:18;3.70;1.00
10304;DHT22;5197;48.152;8.590;2023-03-17T02:24:50;3.70;1.00
10304;DHT22;5197;48.152;8.590;2023-03-17T02:27:52;3.70;1.00
10304;DHT22;5197;48.152;8.590;2023-03-17T02:30:22;3.70;1.00
10304;DHT22;5197;48.152;8.590;2023-03-17T02:32:50;3.70;1.00
10304;DHT22;5197;48.152;8.590;2023-03-17T02:35:17;3.70;1.00
10304;DHT22;5197;48.152;8.590;2023-03-17T02:37:45;3.70;1.00
10304;DHT22;5197;48.152;8.590;2023-03-17T02:40:13;3.70;1.00
10304;DHT22;5197;48.152;8.590;2023-03-17T02:42:40;3.70;1.00
10304;DHT22;5197;48.152;8.590;2023-03-17T02:45:09;3.70;1.00
10304;DHT22;5197;48.152;8.590;2023-03-17T02:47:37;3.70;1.00
10304;DHT22;5197;48.152;8.590;2023-03-17T02:50:05;3.70;1.00
10304;DHT22;5197;48.152;8.590;2023-03-17T02:52:33;3.70;1.00
10304;DHT22;5197;48.152;8.590;2023-03-17T02:54:59;3.70;1.00
10304;DHT22;5197;48.152;8.590;2023-03-17T02:57:26;3.70;1.00
10304;DHT22;5197;48.152;8.590;2023-03-17T02:59:53;3.70;1.00
10304;DHT22;5197;48.152;8.590;2023-03-17T03:02:20;3.70;1.00
10304;DHT22;5197;48.152;8.590;2023-03-17T03:04:47;3.70;1.00
10304;DHT22;5197;48.152;8.590;2023-03-17T03:07:14;3.70;1.00
10304;DHT22;5197;48.152;8.590;2023-03-17T03:09:41;3.70;1.00
10304;DHT22;5197;48.152;8.590;2023-03-17T03:12:08;3.70;1.00
10304;DHT22;5197;48.152;8.590;2023-03-17T03:14:35;3.70;1.00
10304;DHT22;5197;48.152;8.590;2023-03-17T03:17:03;3.70;1.00
10304;DHT22;5197;48.152;8.590;2023-03-17T03:19:30;3.60;1.00
10304;DHT22;5197;48.152;8.590;2023-03-17T03:21:57;3.70;1.00
10304;DHT22;5197;48.152;8.590;2023-03-17T03:24:23;3.60;1.00
10304;DHT22;5197;48.152;8.590;2023-03-17T03:26:50;3.70;1.00
10304;DHT22;5197;48.152;8.590;2023-03-17T03:29:17;3.60;1.00
10304;DHT22;5197;48.152;8.590;2023-03-17T03:31:44;3.60;1.00
10304;DHT22;5197;48.152;8.590;2023-03-17T03:34:11;3.60;1.00
10304;DHT22;5197;48.152;8.590;2023-03-17T03:36:38;3.60;1.00
10304;DHT22;5197;48.152;8.590;2023-03-17T03:39:05;3.60;1.00
10304;DHT22;5197;48.152;8.590;2023-03-17T03:41:31;3.60;1.00
10304;DHT22;5197;48.152;8.590;2023-03-17T03:43:58;3.60;1.00
10304;DHT22;5197;48.152;8.590;2023-03-17T03:46:25;3.60;1.00
10304;DHT22;5197;48.152;8.590;2023-03-17T03:48:53;3.50;1.00
10304;DHT22;5197;48.152;8.590;2023-03-17T03:51:20;3.50;1.00
10304;DHT22;5197;48.152;8.590;2023-03-17T03:53:47;3.50;1.00
10304;DHT22;5197;48.152;8.590;2023-03-17T03:56:14;3.50;1.00
10304;DHT22;5197;48.152;8.590;2023-03-17T03:58:40;3.50;1.00
10304;DHT22;5197;48.152;8.590;2023-03-17T04:01:08;3.50;1.00
10304;DHT22;5197;48.152;8.590;2023-03-17T04:03:36;3.50;1.00
10304;DHT22;5197;48.152;8.590;2023-03-17T04:06:04;3.40;1.00
10304;DHT22;5197;48.152;8.590;2023-03-17T04:08:31;3.40;1.00
10304;DHT22;5197;48.152;8.590;2023-03-17T04:10:58;3.40;1.00
10304;DHT22;5197;48.152;8.590;2023-03-17T04:13:25;3.40;1.00
10304;DHT22;5197;48.152;8.590;2023-03-17T04:15:52;3.40;1.00
10304;DHT22;5197;48.152;8.590;2023-03-17T04:18:19;3.40;1.00
10304;DHT22;5197;48.152;8.590;2023-03-17T04:20:46;3.30;1.00
10304;DHT22;5197;48.152;8.590;2023-03-17T04:23:12;3.30;1.00
10304;DHT22;5197;48.152;8.590;2023-03-17T04:25:39;3.30;1.00
10304;DHT22;5197;48.152;8.590;2023-03-17T04:28:06;3.30;1.00
10304;DHT22;5197;48.152;8.590;2023-03-17T04:30:34;3.20;1.00
10304;DHT22;5197;48.152;8.590;2023-03-17T04:33:01;3.20;1.00
10304;DHT22;5197;48.152;8.590;2023-03-17T04:35:28;3.20;1.00
10304;DHT22;5197;48.152;8.590;2023-03-17T04:37:55;3.20;1.00
10304;DHT22;5197;48.152;8.590;2023-03-17T04:40:22;3.20;1.00
10304;DHT22;5197;48.152;8.590;2023-03-17T04:42:48;3.20;1.00
10304;DHT22;5197;48.152;8.590;2023-03-17T04:45:15;3.20;1.00
10304;DHT22;5197;48.152;8.590;2023-03-17T04:47:43;3.20;1.00
10304;DHT22;5197;48.152;8.590;2023-03-17T04:50:12;3.10;1.00
10304;DHT22;5197;48.152;8.590;2023-03-17T04:52:39;3.10;1.00
10304;DHT22;5197;48.152;8.590;2023-03-17T04:55:07;3.10;1.00
10304;DHT22;5197;48.152;8.590;2023-03-17T04:57:35;3.10;1.00
10304;DHT22;5197;48.152;8.590;2023-03-17T05:00:04;3.10;1.00
10304;DHT22;5197;48.152;8.590;2023-03-17T05:02:31;3.10;1.00
10304;DHT22;5197;48.152;8.590;2023-03-17T05:04:58;3.10;1.00
10304;DHT22;5197;48.152;8.590;2023-03-17T05:07:25;3.00;1.00
10304;DHT22;5197;48.152;8.590;2023-03-17T05:09:52;3.00;1.00
10304;DHT22;5197;48.152;8.590;2023-03-17T05:12:19;3.00;1.00
10304;DHT22;5197;48.152;8.590;2023-03-17T05:14:46;3.00;1.00
10304;DHT22;5197;48.152;8.590;2023-03-17T05:17:12;3.00;1.00
10304;DHT22;5197;48.152;8.590;2023-03-17T05:19:39;3.00;1.00
10304;DHT22;5197;48.152;8.590;2023-03-17T05:22:06;3.00;1.00
10304;DHT22;5197;48.152;8.590;2023-03-17T05:24:33;2.90;1.00
10304;DHT22;5197;48.152;8.590;2023-03-17T05:27:00;2.90;1.00
10304;DHT22;5197;48.152;8.590;2023-03-17T05:29:27;2.90;1.00
10304;DHT22;5197;48.152;8.590;2023-03-17T05:31:54;2.90;1.00
10304;DHT22;5197;48.152;8.590;2023-03-17T05:34:21;2.80;1.00
10304;DHT22;5197;48.152;8.590;2023-03-17T05:36:47;2.80;1.00
10304;DHT22;5197;48.152;8.590;2023-03-17T05:39:16;2.90;1.00
10304;DHT22;5197;48.152;8.590;2023-03-17T05:41:43;2.90;1.00
10304;DHT22;5197;48.152;8.590;2023-03-17T05:44:09;2.80;1.00
10304;DHT22;5197;48.152;8.590;2023-03-17T05:46:36;2.80;1.00
10304;DHT22;5197;48.152;8.590;2023-03-17T05:49:03;2.80;1.00
10304;DHT22;5197;48.152;8.590;2023-03-17T05:51:30;2.80;1.00
10304;DHT22;5197;48.152;8.590;2023-03-17T05:53:57;2.80;1.00
10304;DHT22;5197;48.152;8.590;2023-03-17T05:56:24;2.80;1.00
10304;DHT22;5197;48.152;8.590;2023-03-17T05:58:52;2.80;1.00
10304;DHT22;5197;48.152;8.590;2023-03-17T06:01:19;2.80;1.00
10304;DHT22;5197;48.152;8.590;2023-03-17T06:03:46;2.80;1.00
10304;DHT22;5197;48.152;8.590;2023-03-17T06:06:13;2.80;1.00
10304;DHT22;5197;48.152;8.590;2023-03-17T06:08:41;2.80;1.00
10304;DHT22;5197;48.152;8.590;2023-03-17T06:11:08;2.80;1.00
10304;DHT22;5197;48.152;8.590;2023-03-17T06:13:35;2.80;1.00
10304;DHT22;5197;48.152;8.590;2023-03-17T06:16:02;2.80;1.00
10304;DHT22;5197;48.152;8.590;2023-03-17T06:18:29;2.80;1.00
10304;DHT22;5197;48.152;8.590;2023-03-17T06:20:56;2.80;1.00
10304;DHT22;5197;48.152;8.590;2023-03-17T06:23:23;2.90;1.00
10304;DHT22;5197;48.152;8.590;2023-03-17T06:25:50;3.00;1.00
10304;DHT22;5197;48.152;8.590;2023-03-17T06:28:16;3.10;1.00
10304;DHT22;5197;48.152;8.590;2023-03-17T06:30:44;3.20;1.00
10304;DHT22;5197;48.152;8.590;2023-03-17T06:33:11;3.30;1.00
10304;DHT22;5197;48.152;8.590;2023-03-17T06:35:38;3.40;1.00
10304;DHT22;5197;48.152;8.590;2023-03-17T06:38:06;3.50;1.00
10304;DHT22;5197;48.152;8.590;2023-03-17T06:40:33;3.60;1.00
10304;DHT22;5197;48.152;8.590;2023-03-17T06:43:02;3.70;1.00
10304;DHT22;5197;48.152;8.590;2023-03-17T06:45:29;3.90;1.00
10304;DHT22;5197;48.152;8.590;2023-03-17T06:47:56;4.00;1.00
10304;DHT22;5197;48.152;8.590;2023-03-17T06:50:23;4.20;1.00
10304;DHT22;5197;48.152;8.590;2023-03-17T06:52:50;4.30;1.00
10304;DHT22;5197;48.152;8.590;2023-03-17T06:55:18;4.50;1.00
10304;DHT22;5197;48.152;8.590;2023-03-17T06:57:45;4.80;1.00
10304;DHT22;5197;48.152;8.590;2023-03-17T07:00:15;5.10;1.00
10304;DHT22;5197;48.152;8.590;2023-03-17T07:02:43;5.30;1.00
10304;DHT22;5197;48.152;8.590;2023-03-17T07:05:10;5.60;1.00
10304;DHT22;5197;48.152;8.590;2023-03-17T07:07:38;5.80;1.00
10304;DHT22;5197;48.152;8.590;2023-03-17T07:10:06;6.10;1.00
10304;DHT22;5197;48.152;8.590;2023-03-17T07:12:36;6.20;1.00
10304;DHT22;5197;48.152;8.590;2023-03-17T07:15:03;6.30;1.00
10304;DHT22;5197;48.152;8.590;2023-03-17T07:17:30;6.50;1.00
10304;DHT22;5197;48.152;8.590;2023-03-17T07:19:57;6.60;1.00
10304;DHT22;5197;48.152;8.590;2023-03-17T07:22:24;6.70;1.00
10304;DHT22;5197;48.152;8.590;2023-03-17T07:24:51;6.90;1.00
10304;DHT22;5197;48.152;8.590;2023-03-17T07:27:18;7.00;1.00
10304;DHT22;5197;48.152;8.590;2023-03-17T07:29:48;7.30;1.00
10304;DHT22;5197;48.152;8.590;2023-03-17T07:32:15;7.50;1.00
10304;DHT22;5197;48.152;8.590;2023-03-17T07:34:42;7.70;1.00
10304;DHT22;5197;48.152;8.590;2023-03-17T07:37:09;7.90;1.00
10304;DHT22;5197;48.152;8.590;2023-03-17T07:39:37;8.20;1.00
10304;DHT22;5197;48.152;8.590;2023-03-17T07:42:05;8.40;1.00
10304;DHT22;5197;48.152;8.590;2023-03-17T07:44:32;8.60;1.00
10304;DHT22;5197;48.152;8.590;2023-03-17T07:46:59;8.80;1.00
10304;DHT22;5197;48.152;8.590;2023-03-17T07:49:26;8.90;1.00
10304;DHT22;5197;48.152;8.590;2023-03-17T07:52:08;8.90;1.00
10304;DHT22;5197;48.152;8.590;2023-03-17T07:54:36;8.90;1.00
10304;DHT22;5197;48.152;8.590;2023-03-17T07:57:04;8.90;1.00
10304;DHT22;5197;48.152;8.590;2023-03-17T07:59:31;9.30;1.00
10304;DHT22;5197;48.152;8.590;2023-03-17T08:01:58;9.10;1.00
10304;DHT22;5197;48.152;8.590;2023-03-17T08:04:27;8.80;1.00
10304;DHT22;5197;48.152;8.590;2023-03-17T08:06:54;8.70;1.00
10304;DHT22;5197;48.152;8.590;2023-03-17T08:09:50;8.80;1.00
10304;DHT22;5197;48.152;8.590;2023-03-17T08:12:18;9.00;1.00
10304;DHT22;5197;48.152;8.590;2023-03-17T08:14:45;9.30;1.00
10304;DHT22;5197;48.152;8.590;2023-03-17T08:17:12;9.40;1.00
10304;DHT22;5197;48.152;8.590;2023-03-17T08:19:39;9.70;1.00
10304;DHT22;5197;48.152;8.590;2023-03-17T08:22:06;10.10;1.00
10304;DHT22;5197;48.152;8.590;2023-03-17T08:24:33;10.50;1.00
10304;DHT22;5197;48.152;8.590;2023-03-17T08:27:01;10.70;1.00
10304;DHT22;5197;48.152;8.590;2023-03-17T08:29:28;10.90;1.00
10304;DHT22;5197;48.152;8.590;2023-03-17T08:31:56;11.20;1.00
10304;DHT22;5197;48.152;8.590;2023-03-17T08:34:23;11.40;1.00
10304;DHT22;5197;48.152;8.590;2023-03-17T08:36:50;11.50;1.00
10304;DHT22;5197;48.152;8.590;2023-03-17T08:39:17;11.60;1.00
10304;DHT22;5197;48.152;8.590;2023-03-17T08:41:45;11.60;1.00
10304;DHT22;5197;48.152;8.590;2023-03-17T08:44:12;11.60;1.00
10304;DHT22;5197;48.152;8.590;2023-03-17T08:46:40;11.60;1.00
10304;DHT22;5197;48.152;8.590;2023-03-17T08:49:07;11.50;1.00
10304;DHT22;5197;48.152;8.590;2023-03-17T08:51:36;11.60;1.00
10304;DHT22;5197;48.152;8.590;2023-03-17T08:54:04;11.70;1.00
10304;DHT22;5197;48.152;8.590;2023-03-17T08:56:34;11.70;1.00
10304;DHT22;5197;48.152;8.590;2023-03-17T08:59:04;11.70;1.00
10304;DHT22;5197;48.152;8.590;2023-03-17T09:01:31;11.80;1.00
10304;DHT22;5197;48.152;8.590;2023-03-17T09:04:00;11.80;1.00
10304;DHT22;5197;48.152;8.590;2023-03-17T09:06:28;11.70;1.00
10304;DHT22;5197;48.152;8.590;2023-03-17T09:08:55;11.70;1.00
10304;DHT22;5197;48.152;8.590;2023-03-17T09:11:25;11.70;1.00
10304;DHT22;5197;48.152;8.590;2023-03-17T09:13:52;11.70;1.00
10304;DHT22;5197;48.152;8.590;2023-03-17T09:16:20;11.60;1.00
10304;DHT22;5197;48.152;8.590;2023-03-17T09:18:48;11.60;1.00
10304;DHT22;5197;48.152;8.590;2023-03-17T09:21:15;11.60;1.00
10304;DHT22;5197;48.152;8.590;2023-03-17T09:23:43;11.60;1.00
10304;DHT22;5197;48.152;8.590;2023-03-17T09:26:10;11.60;1.00
10304;DHT22;5197;48.152;8.590;2023-03-17T09:28:41;11.70;1.00
10304;DHT22;5197;48.152;8.590;2023-03-17T09:31:09;11.60;1.00
10304;DHT22;5197;48.152;8.590;2023-03-17T09:33:40;11.60;1.00
10304;DHT22;5197;48.152;8.590;2023-03-17T09:36:08;11.60;1.00
10304;DHT22;5197;48.152;8.590;2023-03-17T09:38:36;11.60;1.00
10304;DHT22;5197;48.152;8.590;2023-03-17T09:46:31;11.70;1.00
10304;DHT22;5197;48.152;8.590;2023-03-17T09:49:13;11.70;1.00
10304;DHT22;5197;48.152;8.590;2023-03-17T09:51:44;11.80;1.00
10304;DHT22;5197;48.152;8.590;2023-03-17T09:54:32;11.90;1.00
10304;DHT22;5197;48.152;8.590;2023-03-17T09:57:09;12.10;1.00
10304;DHT22;5197;48.152;8.590;2023-03-17T09:59:42;12.20;1.00
10304;DHT22;5197;48.152;8.590;2023-03-17T10:02:21;12.30;1.00
10304;DHT22;5197;48.152;8.590;2023-03-17T10:04:49;12.40;1.00
10304;DHT22;5197;48.152;8.590;2023-03-17T10:07:25;12.50;1.00
10304;DHT22;5197;48.152;8.590;2023-03-17T10:10:01;12.50;1.00
10304;DHT22;5197;48.152;8.590;2023-03-17T10:12:45;13.20;1.00
10304;DHT22;5197;48.152;8.590;2023-03-17T10:15:49;12.70;1.00
10304;DHT22;5197;48.152;8.590;2023-03-17T10:18:23;12.90;1.00
10304;DHT22;5197;48.152;8.590;2023-03-17T10:20:59;13.00;1.00
10304;DHT22;5197;48.152;8.590;2023-03-17T10:23:31;13.10;1.00
10304;DHT22;5197;48.152;8.590;2023-03-17T10:26:04;13.20;1.00
10304;DHT22;5197;48.152;8.590;2023-03-17T10:28:34;13.30;1.00
10304;DHT22;5197;48.152;8.590;2023-03-17T10:31:20;13.30;1.00
10304;DHT22;5197;48.152;8.590;2023-03-17T10:33:55;13.50;1.00
10304;DHT22;5197;48.152;8.590;2023-03-17T10:36:38;13.70;1.00
10304;DHT22;5197;48.152;8.590;2023-03-17T10:39:08;13.80;1.00
10304;DHT22;5197;48.152;8.590;2023-03-17T10:41:40;13.90;1.00
10304;DHT22;5197;48.152;8.590;2023-03-17T10:44:44;13.90;1.00
10304;DHT22;5197;48.152;8.590;2023-03-17T10:47:32;14.10;1.00
10304;DHT22;5197;48.152;8.590;2023-03-17T10:58:14;14.60;1.00
10304;DHT22;5197;48.152;8.590;2023-03-17T11:00:57;14.70;1.00
10304;DHT22;5197;48.152;8.590;2023-03-17T11:03:31;14.90;1.00
10304;DHT22;5197;48.152;8.590;2023-03-17T11:08:31;15.10;1.00
10304;DHT22;5197;48.152;8.590;2023-03-17T11:11:05;15.20;1.00
10304;DHT22;5197;48.152;8.590;2023-03-17T11:13:33;15.20;1.00
10304;DHT22;5197;48.152;8.590;2023-03-17T11:16:19;15.30;1.00
10304;DHT22;5197;48.152;8.590;2023-03-17T11:18:51;15.90;1.00
10304;DHT22;5197;48.152;8.590;2023-03-17T11:21:41;15.50;1.00
10304;DHT22;5197;48.152;8.590;2023-03-17T11:24:31;15.50;1.00
10304;DHT22;5197;48.152;8.590;2023-03-17T11:27:05;15.50;1.00
10304;DHT22;5197;48.152;8.590;2023-03-17T11:32:26;15.60;1.00
10304;DHT22;5197;48.152;8.590;2023-03-17T11:35:13;15.60;1.00
10304;DHT22;5197;48.152;8.590;2023-03-17T11:43:21;15.90;1.00
10304;DHT22;5197;48.152;8.590;2023-03-17T11:46:08;16.00;1.00
10304;DHT22;5197;48.152;8.590;2023-03-17T11:51:50;16.10;1.00
10304;DHT22;5197;48.152;8.590;2023-03-17T11:55:20;16.20;1.00
10304;DHT22;5197;48.152;8.590;2023-03-17T11:57:33;16.40;1.00
10304;DHT22;5197;48.152;8.590;2023-03-17T12:00:13;16.30;1.00
10304;DHT22;5197;48.152;8.590;2023-03-17T12:05:40;16.60;1.00
10304;DHT22;5197;48.152;8.590;2023-03-17T12:08:16;16.70;1.00
10304;DHT22;5197;48.152;8.590;2023-03-17T12:10:48;16.70;1.00
10304;DHT22;5197;48.152;8.590;2023-03-17T12:13:22;16.80;1.00
10304;DHT22;5197;48.152;8.590;2023-03-17T12:16:14;16.90;1.00
10304;DHT22;5197;48.152;8.590;2023-03-17T12:18:59;17.00;1.00
10304;DHT22;5197;48.152;8.590;2023-03-17T12:21:40;17.10;1.00
10304;DHT22;5197;48.152;8.590;2023-03-17T12:24:14;17.40;1.00
10304;DHT22;5197;48.152;8.590;2023-03-17T12:26:49;17.30;1.00
10304;DHT22;5197;48.152;8.590;2023-03-17T12:32:17;17.50;1.00
10304;DHT22;5197;48.152;8.590;2023-03-17T12:34:55;17.50;1.00
10304;DHT22;5197;48.152;8.590;2023-03-17T12:37:25;17.60;1.00
10304;DHT22;5197;48.152;8.590;2023-03-17T12:40:04;17.60;1.00
10304;DHT22;5197;48.152;8.590;2023-03-17T12:43:25;19.30;1.00
10304;DHT22;5197;48.152;8.590;2023-03-17T12:45:58;17.70;1.00
10304;DHT22;5197;48.152;8.590;2023-03-17T12:53:48;17.90;1.00
10304;DHT22;5197;48.152;8.590;2023-03-17T12:56:32;17.90;1.00
10304;DHT22;5197;48.152;8.590;2023-03-17T12:59:03;18.00;1.00
10304;DHT22;5197;48.152;8.590;2023-03-17T13:01:43;18.10;1.00
10304;DHT22;5197;48.152;8.590;2023-03-17T13:04:22;18.10;1.00
10304;DHT22;5197;48.152;8.590;2023-03-17T13:07:02;18.20;1.00
10304;DHT22;5197;48.152;8.590;2023-03-17T13:12:00;18.50;1.00
10304;DHT22;5197;48.152;8.590;2023-03-17T13:14:43;18.50;1.00
10304;DHT22;5197;48.152;8.590;2023-03-17T13:22:37;18.40;1.00
10304;DHT22;5197;48.152;8.590;2023-03-17T13:25:13;18.60;1.00
10304;DHT22;5197;48.152;8.590;2023-03-17T13:27:43;18.60;1.00
10304;DHT22;5197;48.152;8.590;2023-03-17T13:38:28;18.80;1.00
10304;DHT22;5197;48.152;8.590;2023-03-17T13:44:09;18.80;1.00
10304;DHT22;5197;48.152;8.590;2023-03-17T13:46:42;18.80;1.00
10304;DHT22;5197;48.152;8.590;2023-03-17T13:54:47;18.90;1.00
10304;DHT22;5197;48.152;8.590;2023-03-17T13:57:36;19.20;1.00
10304;DHT22;5197;48.152;8.590;2023-03-17T14:00:19;18.90;1.00
10304;DHT22;5197;48.152;8.590;2023-03-17T14:02:48;18.90;1.00
10304;DHT22;5197;48.152;8.590;2023-03-17T14:05:23;18.80;1.00
10304;DHT22;5197;48.152;8.590;2023-03-17T14:08:02;18.80;1.00
10304;DHT22;5197;48.152;8.590;2023-03-17T14:10:31;18.80;1.00
10304;DHT22;5197;48.152;8.590;2023-03-17T14:13:22;18.70;1.00
10304;DHT22;5197;48.152;8.590;2023-03-17T14:15:55;19.20;1.00
10304;DHT22;5197;48.152;8.590;2023-03-17T14:18:35;18.70;1.00
10304;DHT22;5197;48.152;8.590;2023-03-17T14:21:05;18.80;1.00
10304;DHT22;5197;48.152;8.590;2023-03-17T14:23:37;18.80;1.00
10304;DHT22;5197;48.152;8.590;2023-03-17T14:26:04;18.90;1.00
10304;DHT22;5197;48.152;8.590;2023-03-17T14:28:36;19.30;1.00
10304;DHT22;5197;48.152;8.590;2023-03-17T14:31:06;19.00;1.00
10304;DHT22;5197;48.152;8.590;2023-03-17T14:33:37;18.70;1.00
10304;DHT22;5197;48.152;8.590;2023-03-17T14:36:07;18.50;1.00
10304;DHT22;5197;48.152;8.590;2023-03-17T14:38:38;18.50;1.00
10304;DHT22;5197;48.152;8.590;2023-03-17T14:43:42;19.10;1.00
10304;DHT22;5197;48.152;8.590;2023-03-17T14:46:25;18.40;1.00
10304;DHT22;5197;48.152;8.590;2023-03-17T14:49:13;18.30;1.00
10304;DHT22;5197;48.152;8.590;2023-03-17T14:51:41;18.20;1.00
10304;DHT22;5197;48.152;8.590;2023-03-17T14:54:19;18.10;1.00
10304;DHT22;5197;48.152;8.590;2023-03-17T14:56:53;18.10;1.00
10304;DHT22;5197;48.152;8.590;2023-03-17T14:59:34;19.30;1.00
10304;DHT22;5197;48.152;8.590;2023-03-17T15:02:21;17.90;1.00
10304;DHT22;5197;48.152;8.590;2023-03-17T15:05:18;17.90;1.00
10304;DHT22;5197;48.152;8.590;2023-03-17T15:07:47;17.80;1.00
10304;DHT22;5197;48.152;8.590;2023-03-17T15:10:20;17.80;1.00
10304;DHT22;5197;48.152;8.590;2023-03-17T15:12:47;17.80;1.00
10304;DHT22;5197;48.152;8.590;2023-03-17T15:15:24;17.80;1.00
10304;DHT22;5197;48.152;8.590;2023-03-17T15:17:55;17.70;1.00
10304;DHT22;5197;48.152;8.590;2023-03-17T15:20:22;18.20;1.00
10304;DHT22;5197;48.152;8.590;2023-03-17T15:23:03;17.60;1.00
10304;DHT22;5197;48.152;8.590;2023-03-17T15:27:57;17.40;1.00
10304;DHT22;5197;48.152;8.590;2023-03-17T15:30:25;17.60;1.00
10304;DHT22;5197;48.152;8.590;2023-03-17T15:32:59;17.30;1.00
10304;DHT22;5197;48.152;8.590;2023-03-17T15:35:27;17.40;1.00
10304;DHT22;5197;48.152;8.590;2023-03-17T15:37:54;17.30;1.00
10304;DHT22;5197;48.152;8.590;2023-03-17T15:40:21;17.30;1.00
10304;DHT22;5197;48.152;8.590;2023-03-17T15:42:48;17.20;1.00
10304;DHT22;5197;48.152;8.590;2023-03-17T15:45:16;17.20;1.00
10304;DHT22;5197;48.152;8.590;2023-03-17T15:47:44;17.10;1.00
10304;DHT22;5197;48.152;8.590;2023-03-17T15:50:15;17.10;1.00
10304;DHT22;5197;48.152;8.590;2023-03-17T15:52:43;17.10;1.00
10304;DHT22;5197;48.152;8.590;2023-03-17T15:55:21;17.20;1.00
10304;DHT22;5197;48.152;8.590;2023-03-17T15:57:48;17.00;1.00
10304;DHT22;5197;48.152;8.590;2023-03-17T16:00:22;17.40;1.00
10304;DHT22;5197;48.152;8.590;2023-03-17T16:02:51;16.80;1.00
10304;DHT22;5197;48.152;8.590;2023-03-17T16:05:24;17.20;1.00
10304;DHT22;5197;48.152;8.590;2023-03-17T16:07:51;17.40;1.00
10304;DHT22;5197;48.152;8.590;2023-03-17T16:10:24;16.60;1.00
10304;DHT22;5197;48.152;8.590;2023-03-17T16:12:52;16.50;1.00
10304;DHT22;5197;48.152;8.590;2023-03-17T16:15:22;16.40;1.00
10304;DHT22;5197;48.152;8.590;2023-03-17T16:18:01;16.40;1.00
10304;DHT22;5197;48.152;8.590;2023-03-17T16:20:39;16.30;1.00
10304;DHT22;5197;48.152;8.590;2023-03-17T16:23:15;16.30;1.00
10304;DHT22;5197;48.152;8.590;2023-03-17T16:25:43;16.20;1.00
10304;DHT22;5197;48.152;8.590;2023-03-17T16:28:21;16.10;1.00
10304;DHT22;5197;48.152;8.590;2023-03-17T16:30:50;16.10;1.00
10304;DHT22;5197;48.152;8.590;2023-03-17T16:33:28;16.00;1.00
10304;DHT22;5197;48.152;8.590;2023-03-17T16:35:57;16.00;1.00
10304;DHT22;5197;48.152;8.590;2023-03-17T16:38:30;15.90;1.00
10304;DHT22;5197;48.152;8.590;2023-03-17T16:41:08;15.90;1.00
10304;DHT22;5197;48.152;8.590;2023-03-17T16:43:42;15.90;1.00
10304;DHT22;5197;48.152;8.590;2023-03-17T16:46:10;15.90;1.00
10304;DHT22;5197;48.152;8.590;2023-03-17T16:48:37;15.80;1.00
10304;DHT22;5197;48.152;8.590;2023-03-17T16:51:05;15.90;1.00
10304;DHT22;5197;48.152;8.590;2023-03-17T16:53:32;15.80;1.00
10304;DHT22;5197;48.152;8.590;2023-03-17T16:55:59;15.80;1.00
10304;DHT22;5197;48.152;8.590;2023-03-17T16:58:29;15.70;1.00
10304;DHT22;5197;48.152;8.590;2023-03-17T17:01:02;15.70;1.00
10304;DHT22;5197;48.152;8.590;2023-03-17T17:03:29;15.70;1.00
10304;DHT22;5197;48.152;8.590;2023-03-17T17:05:57;15.60;1.00
10304;DHT22;5197;48.152;8.590;2023-03-17T17:08:24;15.60;1.00
10304;DHT22;5197;48.152;8.590;2023-03-17T17:10:53;15.70;1.00
10304;DHT22;5197;48.152;8.590;2023-03-17T17:13:20;15.60;1.00
10304;DHT22;5197;48.152;8.590;2023-03-17T17:15:47;15.40;1.00
10304;DHT22;5197;48.152;8.590;2023-03-17T17:18:20;15.40;1.00
10304;DHT22;5197;48.152;8.590;2023-03-17T17:20:48;15.30;1.00
10304;DHT22;5197;48.152;8.590;2023-03-17T17:23:18;15.20;1.00
10304;DHT22;5197;48.152;8.590;2023-03-17T17:25:46;15.30;1.00
10304;DHT22;5197;48.152;8.590;2023-03-17T17:28:17;15.10;1.00
10304;DHT22;5197;48.152;8.590;2023-03-17T17:30:44;15.10;1.00
10304;DHT22;5197;48.152;8.590;2023-03-17T17:33:14;15.30;1.00
10304;DHT22;5197;48.152;8.590;2023-03-17T17:35:42;16.30;1.00
10304;DHT22;5197;48.152;8.590;2023-03-17T17:40:44;14.90;1.00
10304;DHT22;5197;48.152;8.590;2023-03-17T17:43:11;14.80;1.00
10304;DHT22;5197;48.152;8.590;2023-03-17T17:45:38;14.70;1.00
10304;DHT22;5197;48.152;8.590;2023-03-17T17:48:05;14.70;1.00
10304;DHT22;5197;48.152;8.590;2023-03-17T17:50:32;15.10;1.00
10304;DHT22;5197;48.152;8.590;2023-03-17T17:53:00;14.50;1.00
10304;DHT22;5197;48.152;8.590;2023-03-17T17:55:32;14.50;1.00